Time;durP1;ratioP1;P1;durP2;ratioP2;P2;SDS_P1;SDS_P2;PMS_P1;PMS_P2;Temp;Humidity;BMP_temperature;BMP_pressure;BME280_temperature;BME280_humidity;BME280_pressure;Samples;Min_cycle;Max_cycle;Signal;HPM_P1;HPM_P2
2024/01/22 00:02:01;;;;;;;40.08;17.42;;;;;;;-4.46;76.44;101453.25;4923174;29;20042;-91
2024/01/22 00:04:27;;;;;;;40.42;18.15;;;;;;;-4.41;76.29;101453.72;4939688;29;20087;-91
2024/01/22 00:06:52;;;;;;;47.70;19.45;;;;;;;-4.58;76.72;101438.44;4908373;29;20027;-91
2024/01/22 00:09:18;;;;;;;42.05;17.80;;;;;;;-4.56;77.41;101429.47;4923169;29;20121;-91
2024/01/22 00:11:44;;;;;;;45.90;17.92;;;;;;;-4.33;76.96;101461.84;4908609;29;20413;-89
2024/01/22 00:14:09;;;;;;;41.63;18.00;;;;;;;-4.38;76.24;101450.00;4907556;29;20557;-92
2024/01/22 00:16:39;;;;;;;39.35;17.95;;;;;;;-4.43;76.34;101449.53;4907420;29;20035;-91
2024/01/22 00:19:05;;;;;;;43.13;18.73;;;;;;;-4.45;76.54;101454.91;4923704;29;20087;-91
2024/01/22 00:21:31;;;;;;;42.58;18.73;;;;;;;-4.44;76.64;101451.34;4922902;29;20028;-90
2024/01/22 00:23:56;;;;;;;45.70;17.00;;;;;;;-4.47;75.90;101446.31;4938676;29;20027;-91
2024/01/22 00:26:22;;;;;;;48.10;18.38;;;;;;;-4.43;76.34;101471.41;4923215;29;20034;-91
2024/01/22 00:28:48;;;;;;;41.75;17.98;;;;;;;-4.47;76.42;101477.84;4906268;29;20074;-91
2024/01/22 00:31:13;;;;;;;45.30;18.42;;;;;;;-4.46;76.97;101476.91;4907720;29;20031;-90
2024/01/22 00:33:39;;;;;;;52.88;20.08;;;;;;;-4.50;76.46;101452.66;4906859;29;20491;-90
2024/01/22 00:36:04;;;;;;;44.00;18.95;;;;;;;-4.29;76.74;101491.38;4906728;29;20495;-91
2024/01/22 00:38:30;;;;;;;41.67;18.50;;;;;;;-4.56;76.12;101437.34;4907618;29;20039;-91
2024/01/22 00:40:56;;;;;;;45.72;18.35;;;;;;;-4.36;75.87;101462.06;4907143;29;20031;-90
2024/01/22 00:43:22;;;;;;;38.67;17.67;;;;;;;-4.44;76.13;101467.13;4906531;29;20126;-90
2024/01/22 00:45:47;;;;;;;43.88;19.80;;;;;;;-4.33;75.92;101479.41;4907606;29;20034;-90
2024/01/22 00:48:13;;;;;;;49.50;19.67;;;;;;;-4.31;75.69;101472.25;4906511;29;20031;-91
2024/01/22 00:50:38;;;;;;;49.17;18.27;;;;;;;-4.16;75.50;101491.25;4907404;29;20039;-91
2024/01/22 00:53:04;;;;;;;52.35;18.95;;;;;;;-4.22;75.42;101479.41;4905635;29;20044;-90
2024/01/22 00:55:29;;;;;;;39.85;17.98;;;;;;;-4.31;75.24;101474.88;4906128;29;20038;-91
2024/01/22 00:57:56;;;;;;;46.15;17.33;;;;;;;-4.23;74.77;101479.53;4922945;29;20012;-90
2024/01/22 01:00:21;;;;;;;35.85;18.42;;;;;;;-4.33;74.61;101468.91;4906643;29;20035;-90
2024/01/22 01:02:49;;;;;;;32.60;16.48;;;;;;;-4.16;73.95;101489.44;4905840;29;20039;-91
2024/01/22 01:05:14;;;;;;;36.42;18.08;;;;;;;-4.22;73.48;101465.44;4907455;29;20106;-90
2024/01/22 01:07:40;;;;;;;32.03;16.25;;;;;;;-4.48;74.78;101473.56;4906639;29;20031;-91
2024/01/22 01:10:06;;;;;;;35.58;16.88;;;;;;;-4.61;74.72;101471.03;4939563;29;20036;-91
2024/01/22 01:12:32;;;;;;;30.23;15.63;;;;;;;-4.56;74.87;101476.78;4922517;29;20032;-90
2024/01/22 01:14:58;;;;;;;25.35;13.18;;;;;;;-4.47;74.25;101480.47;4906326;29;20040;-90
2024/01/22 01:17:23;;;;;;;20.38;10.43;;;;;;;-4.39;73.60;101462.31;4923105;29;20035;-90
2024/01/22 01:19:49;;;;;;;17.88;9.30;;;;;;;-4.40;72.86;101463.28;4906212;29;20027;-91
2024/01/22 01:22:14;;;;;;;16.52;8.75;;;;;;;-4.38;72.21;101468.41;4922715;29;20058;-91
2024/01/22 01:24:40;;;;;;;16.20;8.45;;;;;;;-4.35;72.15;101473.44;4907196;29;20049;-91
2024/01/22 01:27:06;;;;;;;18.70;9.52;;;;;;;-4.64;72.60;101438.91;4906911;29;20027;-92
2024/01/22 01:29:31;;;;;;;20.23;9.85;;;;;;;-4.52;72.47;101467.69;4905935;29;20031;-91
2024/01/22 01:31:57;;;;;;;19.25;10.38;;;;;;;-4.64;72.73;101449.41;4906374;29;20024;-91
2024/01/22 01:34:22;;;;;;;21.63;10.77;;;;;;;-4.82;72.37;101446.41;4905968;29;20031;-91
2024/01/22 01:36:48;;;;;;;18.30;9.98;;;;;;;-4.96;72.77;101437.78;4903304;29;20060;-91
2024/01/22 01:39:13;;;;;;;29.77;11.27;;;;;;;-4.84;73.17;101464.06;4902691;29;20051;-92
2024/01/22 01:41:39;;;;;;;17.73;9.70;;;;;;;-5.01;73.39;101445.16;4920846;29;20534;-91
2024/01/22 01:44:04;;;;;;;17.27;9.02;;;;;;;-4.97;73.50;101451.03;4906458;29;20028;-92
2024/01/22 01:46:30;;;;;;;17.73;9.80;;;;;;;-4.91;72.81;101443.50;4902027;29;20060;-91
2024/01/22 01:48:55;;;;;;;15.95;7.95;;;;;;;-4.75;72.73;101455.47;4906459;29;20031;-91
2024/01/22 01:51:21;;;;;;;18.35;10.05;;;;;;;-4.97;72.68;101435.28;4905719;29;20051;-90
2024/01/22 01:53:46;;;;;;;23.02;10.35;;;;;;;-4.99;72.62;101430.13;4905713;29;20086;-91
2024/01/22 01:56:12;;;;;;;27.30;12.60;;;;;;;-4.93;72.88;101463.81;4905257;29;20038;-91
2024/01/22 01:58:38;;;;;;;28.23;12.38;;;;;;;-5.15;72.51;101435.69;4922003;29;20542;-90
2024/01/22 02:01:03;;;;;;;27.67;12.65;;;;;;;-5.14;72.59;101447.06;4906079;29;20034;-91
2024/01/22 02:03:29;;;;;;;28.52;12.10;;;;;;;-5.21;72.90;101441.41;4937173;29;20031;-91
2024/01/22 02:05:54;;;;;;;26.20;12.45;;;;;;;-5.21;73.45;101449.28;4906699;29;20099;-91
2024/01/22 02:08:20;;;;;;;21.67;10.73;;;;;;;-5.17;73.20;101442.00;4905565;29;20501;-91
2024/01/22 02:10:49;;;;;;;22.63;10.82;;;;;;;-5.16;72.98;101452.41;4905759;29;20028;-91
2024/01/22 02:13:14;;;;;;;23.53;11.33;;;;;;;-5.24;73.17;101438.19;4905716;29;20114;-91
2024/01/22 02:15:41;;;;;;;23.42;11.27;;;;;;;-5.13;73.20;101436.41;4905670;29;20481;-90
2024/01/22 02:18:07;;;;;;;26.48;12.10;;;;;;;-5.03;72.84;101449.69;4906610;29;20054;-91
2024/01/22 02:20:32;;;;;;;23.08;10.63;;;;;;;-5.16;73.32;101447.16;4921561;29;20031;-91
2024/01/22 02:23:03;;;;;;;20.63;10.77;;;;;;;-5.13;73.46;101446.09;4904109;29;20039;-91
2024/01/22 02:25:29;;;;;;;19.70;11.17;;;;;;;-5.41;72.91;101419.28;4905145;29;20039;-91
2024/01/22 02:27:54;;;;;;;19.17;10.07;;;;;;;-5.32;73.07;101428.25;4921412;29;20453;-91
2024/01/22 02:30:20;;;;;;;22.85;10.30;;;;;;;-5.40;72.35;101425.34;4920382;29;20414;-91
2024/01/22 02:32:45;;;;;;;28.25;11.30;;;;;;;-5.28;72.13;101443.66;4921341;29;20052;-90
2024/01/22 02:35:11;;;;;;;18.92;9.23;;;;;;;-5.58;72.45;101438.91;4904741;29;20442;-91
2024/01/22 02:37:38;;;;;;;14.40;8.55;;;;;;;-5.50;72.79;101427.81;4936107;29;20140;-91
2024/01/22 02:40:04;;;;;;;16.77;9.40;;;;;;;-5.51;72.71;101432.22;4924518;29;20457;-91
2024/01/22 02:42:31;;;;;;;15.20;8.43;;;;;;;-5.61;72.51;101420.72;4924073;29;20023;-91
2024/01/22 02:44:57;;;;;;;15.07;8.02;;;;;;;-5.43;71.73;101446.59;4941138;29;20151;-91
2024/01/22 02:47:22;;;;;;;16.50;8.30;;;;;;;-5.43;72.29;101431.66;4956998;29;20087;-91
2024/01/22 02:49:48;;;;;;;17.17;8.82;;;;;;;-5.40;72.24;101439.31;4923986;29;20027;-91
2024/01/22 02:52:13;;;;;;;16.73;8.25;;;;;;;-5.51;72.13;101420.91;4910346;29;20055;-91
2024/01/22 02:54:39;;;;;;;16.83;8.43;;;;;;;-5.55;72.23;101437.81;4913643;29;20477;-91
2024/01/22 02:57:04;;;;;;;14.93;7.60;;;;;;;-5.49;71.56;101448.69;4912921;29;20509;-92
2024/01/22 02:59:30;;;;;;;15.33;8.13;;;;;;;-5.50;72.04;101447.03;4909554;29;20116;-91
2024/01/22 03:01:55;;;;;;;13.47;8.13;;;;;;;-5.66;72.66;101441.25;4907939;29;20031;-91
2024/01/22 03:04:21;;;;;;;13.27;7.40;;;;;;;-5.51;72.19;101460.28;4926091;29;20034;-91
2024/01/22 03:06:46;;;;;;;14.45;7.38;;;;;;;-5.70;71.82;101430.13;4911467;29;20405;-91
2024/01/22 03:09:12;;;;;;;15.00;7.67;;;;;;;-5.64;72.26;101444.59;4927458;29;20027;-91
2024/01/22 03:11:38;;;;;;;20.73;7.68;;;;;;;-5.59;72.60;101457.38;4927346;29;20028;-90
2024/01/22 03:14:03;;;;;;;14.55;8.43;;;;;;;-5.67;72.34;101444.81;4927743;29;20508;-90
2024/01/22 03:16:29;;;;;;;14.00;7.68;;;;;;;-5.78;72.70;101434.25;4915574;29;20031;-90
2024/01/22 03:18:54;;;;;;;20.50;9.07;;;;;;;-5.65;72.76;101442.91;4934531;29;20023;-90
2024/01/22 03:21:20;;;;;;;13.00;7.40;;;;;;;-5.60;72.17;101464.41;4911235;29;20035;-93
2024/01/22 03:23:45;;;;;;;16.47;8.77;;;;;;;-5.64;72.13;101456.84;4921661;29;20027;-91
2024/01/22 03:26:20;;;;;;;14.13;7.78;;;;;;;-5.62;71.83;101454.94;4941967;29;20058;-91
2024/01/22 03:28:50;;;;;;;13.47;6.93;;;;;;;-5.68;71.68;101441.34;4931337;29;20029;-92
2024/01/22 03:31:37;;;;;;;18.20;8.20;;;;;;;-5.52;72.09;101469.06;4924619;29;20023;-90
2024/01/22 03:34:03;;;;;;;16.52;8.95;;;;;;;-5.74;72.40;101441.78;4927288;29;20114;-91
2024/01/22 03:36:28;;;;;;;13.80;7.73;;;;;;;-5.67;72.59;101450.03;4923210;29;20051;-90
2024/01/22 03:38:54;;;;;;;19.50;10.30;;;;;;;-5.66;72.82;101451.75;4910144;29;20068;-91
2024/01/22 03:41:20;;;;;;;17.00;8.93;;;;;;;-5.57;72.51;101463.34;4910353;29;20038;-92
2024/01/22 03:43:45;;;;;;;17.60;10.55;;;;;;;-5.58;72.51;101454.63;4927380;29;20030;-91
2024/01/22 03:46:11;;;;;;;21.50;9.75;;;;;;;-5.47;71.83;101458.28;4914425;29;20028;-90
2024/01/22 03:48:37;;;;;;;20.45;10.70;;;;;;;-5.71;72.04;101433.72;4935162;29;20117;-91
2024/01/22 03:51:02;;;;;;;21.40;8.98;;;;;;;-5.64;71.96;101452.47;4929601;29;20027;-91
2024/01/22 03:53:28;;;;;;;15.43;8.60;;;;;;;-5.68;71.54;101443.13;4941812;29;20054;-92
2024/01/22 03:55:53;;;;;;;13.85;7.13;;;;;;;-5.65;71.29;101449.94;4926351;29;20046;-91
2024/01/22 03:58:19;;;;;;;20.10;9.23;;;;;;;-5.82;71.25;101448.53;4910596;29;20019;-91
2024/01/22 04:00:44;;;;;;;18.30;9.77;;;;;;;-5.79;71.01;101456.19;4910090;29;20043;-91
2024/01/22 04:03:10;;;;;;;21.75;9.30;;;;;;;-5.76;71.97;101477.78;4926414;29;20509;-92
2024/01/22 04:05:37;;;;;;;19.70;9.20;;;;;;;-5.76;71.65;101477.78;4911133;29;20034;-91
2024/01/22 04:08:03;;;;;;;19.80;9.82;;;;;;;-5.92;71.83;101456.22;4910769;29;20514;-90
2024/01/22 04:10:30;;;;;;;15.23;8.15;;;;;;;-6.06;72.06;101461.66;4931671;29;20027;-92
2024/01/22 04:12:55;;;;;;;21.83;9.77;;;;;;;-6.04;72.09;101465.00;4929927;29;20058;-91
2024/01/22 04:15:23;;;;;;;15.18;9.05;;;;;;;-6.01;70.87;101462.19;4930791;29;20023;-91
2024/01/22 04:17:48;;;;;;;17.77;9.43;;;;;;;-6.02;71.84;101465.72;4930920;29;20043;-92
2024/01/22 04:20:14;;;;;;;15.93;8.13;;;;;;;-5.98;72.08;101473.25;4944934;29;20031;-91
2024/01/22 04:22:40;;;;;;;16.73;8.77;;;;;;;-6.05;71.42;101456.31;4925620;29;20094;-91
2024/01/22 04:25:05;;;;;;;20.30;8.45;;;;;;;-5.99;71.05;101466.34;4932161;29;20038;-92
2024/01/22 04:27:31;;;;;;;20.03;8.77;;;;;;;-6.03;71.64;101477.19;4903989;29;20035;-91
2024/01/22 04:29:56;;;;;;;17.97;8.60;;;;;;;-6.22;72.06;101459.28;4931715;29;20042;-91
2024/01/22 04:32:22;;;;;;;15.10;8.60;;;;;;;-6.23;71.98;101444.50;4913232;29;20020;-90
2024/01/22 04:34:50;;;;;;;24.10;12.13;;;;;;;-6.14;71.05;101456.97;4928206;29;20059;-91
2024/01/22 04:37:16;;;;;;;20.77;8.83;;;;;;;-6.21;71.65;101464.41;4915234;29;20047;-91
2024/01/22 04:39:41;;;;;;;16.90;8.23;;;;;;;-6.21;72.00;101474.88;4910871;29;20034;-92
2024/01/22 04:42:07;;;;;;;18.33;8.87;;;;;;;-6.20;72.02;101479.19;4911064;29;20043;-92
2024/01/22 04:44:32;;;;;;;16.37;8.17;;;;;;;-6.11;71.72;101478.53;4911146;29;20027;-91
2024/01/22 04:46:58;;;;;;;16.70;9.13;;;;;;;-6.17;71.97;101476.34;4930188;29;20039;-92
2024/01/22 04:50:15;;;;;;;16.07;8.87;;;;;;;-6.12;72.18;101489.13;4908716;29;20031;-96
2024/01/22 04:57:02;;;;;;;20.15;8.05;;;;;;;-6.29;71.42;101466.72;4942532;29;20042;-96
2024/01/22 04:59:56;;;;;;;15.10;7.57;;;;;;;-6.21;70.72;101495.03;4925367;29;20043;-95
2024/01/22 05:12:32;;;;;;;18.83;8.43;;;;;;;-6.37;73.00;101503.09;4944801;29;20046;-95
2024/01/22 05:15:20;;;;;;;16.53;8.07;;;;;;;-6.33;71.84;101494.09;4885431;29;20025;-95
2024/01/22 05:18:33;;;;;;;17.50;10.57;;;;;;;-6.07;71.89;101504.56;5066311;23;20030;-96
2024/01/22 05:21:02;;;;;;;22.37;12.87;;;;;;;-6.21;71.46;101471.44;4951626;29;20055;-95
2024/01/22 05:23:27;;;;;;;28.13;13.60;;;;;;;-6.27;72.04;101472.69;4929785;29;20031;-94
2024/01/22 05:25:54;;;;;;;27.17;13.23;;;;;;;-6.17;71.52;101470.28;4916174;28;20086;-96
2024/01/22 05:28:20;;;;;;;22.77;12.43;;;;;;;-6.21;72.20;101468.81;4915023;29;20027;-96
2024/01/22 05:30:48;;;;;;;30.97;12.30;;;;;;;-6.07;71.13;101488.84;4914861;29;20031;-95
2024/01/22 05:33:14;;;;;;;54.20;20.10;;;;;;;-6.00;71.77;101488.25;4930902;29;20031;-96
2024/01/22 05:35:40;;;;;;;25.00;11.70;;;;;;;-6.07;71.71;101468.69;4931649;29;20035;-95
2024/01/22 05:38:05;;;;;;;22.90;9.90;;;;;;;-6.02;70.84;101476.22;4915824;29;20034;-95
2024/01/22 05:40:31;;;;;;;15.50;8.40;;;;;;;-6.03;70.94;101491.13;4916017;29;20031;-94
2024/01/22 05:42:57;;;;;;;16.40;9.13;;;;;;;-5.98;70.89;101489.00;4914650;29;20123;-95
2024/01/22 05:45:22;;;;;;;18.87;9.37;;;;;;;-5.93;71.34;101499.16;4915306;29;20403;-94
2024/01/22 05:47:49;;;;;;;24.47;9.40;;;;;;;-5.77;70.63;101510.25;4916932;29;20054;-95
2024/01/22 05:50:18;;;;;;;17.80;9.60;;;;;;;-5.65;70.30;101500.63;4935581;29;20035;-96
2024/01/22 05:52:43;;;;;;;16.60;9.47;;;;;;;-5.83;69.66;101475.72;4934599;29;20041;-94
2024/01/22 05:55:23;;;;;;;46.78;35.10;;;;;;;-5.87;69.72;101485.59;4920760;29;20055;-96
2024/01/22 05:57:49;;;;;;;20.25;10.75;;;;;;;-6.05;69.98;101463.34;4900650;29;20036;-96
2024/01/22 06:00:21;;;;;;;26.20;12.43;;;;;;;-5.84;68.80;101488.00;4879419;29;20113;-96
2024/01/22 06:02:48;;;;;;;21.10;10.07;;;;;;;-5.85;69.74;101502.06;4897251;29;20040;-96
2024/01/22 06:05:14;;;;;;;17.43;9.80;;;;;;;-6.02;69.55;101476.22;4901024;29;20043;-96
2024/01/22 06:07:40;;;;;;;19.27;10.30;;;;;;;-5.95;69.84;101499.28;4929426;29;20203;-95
2024/01/22 06:10:07;;;;;;;31.03;9.93;;;;;;;-5.97;69.77;101482.81;4878022;29;20036;-95
2024/01/22 06:12:34;;;;;;;19.97;10.60;;;;;;;-6.08;69.25;101480.09;4894180;29;20048;-96
2024/01/22 06:15:03;;;;;;;23.83;12.40;;;;;;;-6.04;70.83;101501.72;4897228;29;20033;-94
2024/01/22 06:17:31;;;;;;;21.37;10.50;;;;;;;-5.95;70.47;101501.06;4891848;29;20048;-96
2024/01/22 06:24:04;;;;;;;17.80;8.40;;;;;;;-5.92;70.59;101482.47;4885177;29;20041;-95
2024/01/22 06:26:24;;;;;;;19.73;11.07;;;;;;;-5.70;68.92;101481.78;4902818;29;20090;-96
2024/01/22 06:28:57;;;;;;;20.43;10.17;;;;;;;-5.69;69.42;101491.28;4914307;29;20052;-96
2024/01/22 06:40:15;;;;;;;87.93;43.53;;;;;;;-5.43;68.06;101476.28;5567165;23;20062;-96
2024/01/22 07:00:09;;;;;;;27.40;10.23;;;;;;;-4.85;67.93;101520.22;5555954;23;20038;-96
2024/01/22 07:02:43;;;;;;;14.02;8.35;;;;;;;-4.85;67.71;101517.59;4925577;29;20038;-96
2024/01/22 07:05:52;;;;;;;13.98;8.25;;;;;;;-4.68;66.65;101504.81;4926791;29;20039;-96
2024/01/22 07:12:16;;;;;;;15.88;7.97;;;;;;;-4.45;65.72;101514.56;4943832;29;20122;-92
2024/01/22 07:14:44;;;;;;;10.77;5.93;;;;;;;-4.19;64.97;101521.28;4896027;29;20075;-92
2024/01/22 07:17:10;;;;;;;16.70;7.22;;;;;;;-4.01;64.94;101529.50;4910031;29;20446;-94
2024/01/22 07:19:43;;;;;;;10.00;6.40;;;;;;;-4.11;63.77;101512.75;4888444;29;20024;-95
2024/01/22 07:22:11;;;;;;;13.18;7.20;;;;;;;-3.90;63.63;101516.34;4908978;29;20038;-94
2024/01/22 07:24:40;;;;;;;10.27;5.85;;;;;;;-3.68;62.96;101528.63;4909485;29;20028;-90
2024/01/22 07:27:06;;;;;;;16.63;7.53;;;;;;;-3.72;63.33;101529.81;4893567;29;20462;-91
2024/01/22 07:29:38;;;;;;;22.23;8.15;;;;;;;-3.65;63.61;101538.09;4905526;29;20027;-93
2024/01/22 07:32:07;;;;;;;20.58;8.52;;;;;;;-3.65;63.66;101524.94;4886854;29;20059;-92
2024/01/22 07:34:33;;;;;;;14.63;8.95;;;;;;;-3.78;64.19;101506.63;4894283;29;20031;-92
2024/01/22 07:37:12;;;;;;;;;;;;;;;;;;;;;
2024/01/22 07:39:42;;;;;;;27.13;14.63;;;;;;;-3.53;64.13;101529.22;4909101;29;20099;-93
2024/01/22 07:47:58;;;;;;;31.38;22.23;;;;;;;-3.77;65.08;101518.00;4927616;29;20483;-92
2024/01/22 07:50:24;;;;;;;19.00;10.75;;;;;;;-3.72;64.76;101497.41;4899182;29;20039;-95
2024/01/22 07:52:55;;;;;;;24.50;10.18;;;;;;;-3.54;65.38;101516.16;4912419;29;20042;-93
2024/01/22 07:55:33;;;;;;;16.73;8.80;;;;;;;-3.57;64.74;101508.50;4909368;29;20504;-92
2024/01/22 07:58:04;;;;;;;10.90;6.30;;;;;;;-3.30;63.29;101529.13;4898940;29;20040;-91
2024/01/22 08:00:44;;;;;;;11.00;6.05;;;;;;;-3.28;63.26;101512.25;4892151;29;20078;-90
2024/01/22 08:03:32;;;;;;;9.43;5.43;;;;;;;-3.20;63.25;101500.25;4901047;29;20040;-92
2024/01/22 08:06:01;;;;;;;15.10;6.05;;;;;;;-2.97;62.95;101527.34;4907599;29;20063;-91
2024/01/22 08:08:41;;;;;;;12.25;6.82;;;;;;;-2.85;62.28;101515.78;4909251;29;20062;-92
2024/01/22 08:11:50;;;;;;;12.05;6.28;;;;;;;-2.78;62.81;101518.72;4945599;29;20110;-95
2024/01/22 08:14:33;;;;;;;12.68;6.10;;;;;;;-2.79;63.83;101493.34;4926131;29;20099;-90
2024/01/22 08:17:01;;;;;;;10.63;5.72;;;;;;;-2.77;62.75;101486.97;4918349;29;20047;-91
2024/01/22 08:19:28;;;;;;;12.10;6.32;;;;;;;-2.66;63.37;101513.28;4892618;29;20118;-92
2024/01/22 08:21:54;;;;;;;11.73;6.38;;;;;;;-2.84;63.42;101485.84;4903009;29;20099;-91
2024/01/22 08:24:22;;;;;;;14.23;6.63;;;;;;;-2.62;63.70;101505.94;4906728;29;20044;-93
2024/01/22 08:26:48;;;;;;;14.18;7.20;;;;;;;-2.73;63.93;101488.38;4896264;29;20161;-91
2024/01/22 08:29:14;;;;;;;18.77;8.23;;;;;;;-2.55;63.90;101487.78;4918344;29;20027;-96
2024/01/22 08:32:25;;;;;;;26.27;15.68;;;;;;;-2.41;64.09;101471.63;4928998;29;20082;-96
2024/01/22 08:34:54;;;;;;;8.75;5.25;;;;;;;-2.26;63.22;101486.16;4898818;29;20051;-91
2024/01/22 08:37:20;;;;;;;14.55;6.82;;;;;;;-2.21;63.49;101487.56;4936954;29;20034;-91
2024/01/22 08:39:45;;;;;;;6.80;4.03;;;;;;;-2.15;62.38;101469.38;4926501;29;20031;-91
2024/01/22 08:42:11;;;;;;;5.75;3.83;;;;;;;-1.93;60.93;101464.84;4895103;29;20153;-91
2024/01/22 08:44:38;;;;;;;9.18;4.53;;;;;;;-1.75;61.77;101480.88;4894204;29;20050;-92
2024/01/22 08:47:04;;;;;;;8.82;5.43;;;;;;;-1.77;60.95;101459.06;4895225;29;20190;-94
2024/01/22 08:49:34;;;;;;;17.15;6.85;;;;;;;-1.65;60.85;101474.63;4891776;29;20051;-91
2024/01/22 08:52:04;;;;;;;8.77;5.13;;;;;;;-1.25;61.15;101494.84;4939210;29;20035;-92
2024/01/22 08:54:30;;;;;;;11.05;4.85;;;;;;;-1.29;60.38;101474.13;4890601;29;20048;-93
2024/01/22 08:56:55;;;;;;;9.15;4.95;;;;;;;-1.34;60.60;101463.13;4906369;29;20032;-94
2024/01/22 08:59:21;;;;;;;8.93;5.47;;;;;;;-1.36;60.35;101465.09;4893568;29;20023;-93
2024/01/22 09:05:22;;;;;;;10.80;5.57;;;;;;;-0.94;60.69;101478.00;4891194;29;20046;-95
2024/01/22 09:07:48;;;;;;;8.27;4.43;;;;;;;-0.79;60.12;101473.91;4866153;29;20425;-93
2024/01/22 09:10:14;;;;;;;7.55;4.82;;;;;;;-0.61;60.20;101492.56;4834895;29;20051;-94
2024/01/22 09:12:39;;;;;;;9.80;5.35;;;;;;;-0.38;59.49;101482.47;4835863;29;20116;-93
2024/01/22 09:15:10;;;;;;;10.70;5.80;;;;;;;-0.42;60.23;101481.91;4837400;29;20041;-91
2024/01/22 09:17:47;;;;;;;13.25;7.18;;;;;;;-0.39;59.62;101454.34;4835788;29;20144;-96
2024/01/22 09:20:14;;;;;;;20.02;8.55;;;;;;;-0.40;59.54;101457.94;4837643;29;20116;-92
2024/01/22 09:22:44;;;;;;;19.08;6.38;;;;;;;-0.48;60.44;101440.16;4840378;29;20040;-96
2024/01/22 09:25:11;;;;;;;10.13;6.40;;;;;;;-0.44;60.54;101438.88;4870851;29;20093;-93
2024/01/22 09:27:37;;;;;;;11.90;6.20;;;;;;;-0.31;59.19;101420.03;4854018;29;20049;-96
2024/01/22 09:30:06;;;;;;;7.85;5.07;;;;;;;0.01;59.00;101437.28;4826467;29;20073;-92
2024/01/22 09:32:32;;;;;;;14.50;7.07;;;;;;;0.14;58.91;101450.16;4799565;29;20062;-89
2024/01/22 09:34:57;;;;;;;17.35;10.15;;;;;;;0.07;59.75;101430.56;4844777;29;20040;-89
2024/01/22 09:37:23;;;;;;;15.20;7.53;;;;;;;0.31;57.80;101440.56;4866797;29;20021;-90
2024/01/22 09:39:50;;;;;;;11.43;7.07;;;;;;;0.40;57.53;101418.50;4871859;29;20052;-90
2024/01/22 09:42:15;;;;;;;13.90;7.28;;;;;;;0.36;57.88;101410.00;4867163;29;20029;-90
2024/01/22 09:44:41;;;;;;;17.17;8.73;;;;;;;0.49;57.23;101411.44;4867296;29;20032;-91
2024/01/22 09:47:08;;;;;;;114.65;54.53;;;;;;;0.67;57.97;101422.88;4882744;29;20056;-90
2024/01/22 09:49:36;;;;;;;26.75;12.02;;;;;;;0.74;57.16;101400.03;4851187;29;20536;-91
2024/01/22 09:52:22;;;;;;;16.08;7.53;;;;;;;0.78;57.13;101395.28;4854347;29;20041;-96
2024/01/22 09:54:51;;;;;;;33.75;16.40;;;;;;;1.09;57.76;101419.53;4886330;29;20033;-94
2024/01/22 09:57:17;;;;;;;25.17;11.63;;;;;;;1.13;57.60;101410.28;4866345;29;20029;-92
2024/01/22 09:59:53;;;;;;;;;;;;;;;;;;;;;
2024/01/22 10:02:34;;;;;;;14.43;7.38;;;;;;;1.11;57.30;101408.78;4892613;29;20551;-92
2024/01/22 10:05:40;;;;;;;12.80;7.18;;;;;;;1.19;57.44;101404.34;4884829;29;20039;-90
2024/01/22 10:08:29;;;;;;;11.73;6.75;;;;;;;1.18;56.91;101385.91;4887624;29;20040;-91
2024/01/22 10:10:57;;;;;;;11.70;6.22;;;;;;;1.23;56.35;101370.38;4886399;29;20067;-91
2024/01/22 10:13:23;;;;;;;10.00;6.55;;;;;;;1.26;56.22;101375.34;4871220;29;20029;-93
2024/01/22 10:15:49;;;;;;;15.52;6.78;;;;;;;1.40;56.44;101395.16;4890178;29;20033;-91
2024/01/22 10:18:18;;;;;;;14.35;6.72;;;;;;;1.31;55.97;101380.22;4890746;29;20403;-92
2024/01/22 10:21:04;;;;;;;10.63;6.65;;;;;;;1.61;55.37;101392.94;4891976;29;20032;-91
2024/01/22 10:23:33;;;;;;;14.68;8.73;;;;;;;1.55;55.76;101392.75;4889321;29;20425;-93
2024/01/22 10:26:10;;;;;;;11.30;7.00;;;;;;;1.21;55.85;101375.84;4891355;29;20069;-91
2024/01/22 10:28:45;;;;;;;13.63;7.00;;;;;;;1.41;56.04;101363.16;4904424;29;20033;-91
2024/01/22 10:31:12;;;;;;;14.68;7.68;;;;;;;1.64;56.29;101372.38;4880349;29;20028;-92
2024/01/22 10:33:42;;;;;;;13.75;6.28;;;;;;;1.68;55.13;101361.28;4887941;29;20036;-91
2024/01/22 10:36:17;;;;;;;10.05;5.72;;;;;;;1.92;54.03;101383.59;4891244;29;20036;-90
2024/01/22 10:39:04;;;;;;;9.02;5.38;;;;;;;1.85;53.70;101367.47;4887605;29;20095;-92
2024/01/22 10:42:20;;;;;;;9.73;5.85;;;;;;;2.14;52.80;101395.44;4893480;29;20108;-94
2024/01/22 10:45:31;;;;;;;;;;;;;;;;;;;;;
2024/01/22 10:52:43;;;;;;;17.63;7.80;;;;;;;2.43;53.77;101371.06;4839270;29;20039;-93
2024/01/22 10:54:43;;;;;;;14.85;8.60;;;;;;;2.33;53.86;101362.41;4776291;29;20042;-92
2024/01/22 10:57:21;;;;;;;12.68;7.40;;;;;;;2.06;54.00;101353.75;4859631;29;20115;-93
2024/01/22 10:59:48;;;;;;;12.73;7.10;;;;;;;2.14;54.11;101353.75;4885783;29;20032;-91
2024/01/22 11:02:27;;;;;;;17.40;7.57;;;;;;;2.18;53.45;101354.25;4879287;29;20069;-92
2024/01/22 11:05:02;;;;;;;16.63;9.40;;;;;;;2.18;54.62;101356.94;4905530;29;20024;-92
2024/01/22 11:07:28;;;;;;;14.68;8.35;;;;;;;1.92;52.35;101341.09;4903306;29;20096;-92
2024/01/22 11:09:59;;;;;;;11.45;7.22;;;;;;;1.98;51.71;101370.47;4889696;29;20029;-91
2024/01/22 11:12:44;;;;;;;13.00;7.85;;;;;;;1.94;52.20;101360.34;4905074;29;20111;-96
2024/01/22 11:15:18;;;;;;;13.90;8.20;;;;;;;1.72;53.15;101345.84;4891044;29;20076;-92
2024/01/22 11:17:44;;;;;;;12.98;7.50;;;;;;;1.81;52.46;101337.75;4887633;29;20048;-91
2024/01/22 11:20:24;;;;;;;20.73;9.35;;;;;;;1.68;54.17;101344.50;4869906;29;20032;-91
2024/01/22 11:23:09;;;;;;;16.55;9.38;;;;;;;1.64;55.26;101337.84;4905383;29;20032;-90
2024/01/22 11:25:38;;;;;;;13.95;8.90;;;;;;;1.52;55.60;101359.41;4885533;29;20044;-91
2024/01/22 11:28:35;;;;;;;14.15;8.80;;;;;;;1.53;56.96;101354.91;4878361;29;20087;-94
2024/01/22 11:31:02;;;;;;;25.08;15.30;;;;;;;1.41;55.75;101341.94;4874389;29;20046;-93
2024/01/22 11:33:28;;;;;;;13.77;7.90;;;;;;;1.29;57.04;101355.66;4886288;29;20108;-92
2024/01/22 11:35:53;;;;;;;12.55;7.78;;;;;;;1.37;56.61;101356.50;4905837;29;20123;-93
2024/01/22 11:38:53;;;;;;;15.77;8.82;;;;;;;1.31;57.15;101353.69;4876124;29;20059;-95
2024/01/22 11:41:32;;;;;;;14.32;8.68;;;;;;;1.03;57.86;101335.28;4873416;29;20025;-95
2024/01/22 11:44:37;;;;;;;15.10;9.48;;;;;;;0.83;58.08;101321.41;4894890;29;20041;-96
2024/01/22 11:47:56;;;;;;;15.93;9.23;;;;;;;0.84;57.81;101304.50;4857946;29;20057;-96
2024/01/22 11:50:24;;;;;;;17.90;10.05;;;;;;;1.03;57.99;101337.09;4870679;29;20105;-95
2024/01/22 11:52:50;;;;;;;14.55;8.45;;;;;;;0.95;57.06;101330.75;4889570;29;20502;-94
2024/01/22 11:55:16;;;;;;;14.00;8.65;;;;;;;0.89;57.62;101328.72;4889664;29;20032;-96
2024/01/22 11:57:50;;;;;;;14.45;7.97;;;;;;;0.77;56.48;101306.94;4888970;29;20047;-95
2024/01/22 12:00:20;;;;;;;15.73;8.20;;;;;;;1.10;55.44;101328.34;4887584;29;20036;-94
2024/01/22 12:02:56;;;;;;;17.08;9.63;;;;;;;1.11;57.46;101310.63;4888790;29;20092;-93
2024/01/22 12:05:36;;;;;;;14.23;8.32;;;;;;;1.12;56.25;101317.56;4914322;29;20090;-94
2024/01/22 12:08:14;;;;;;;16.35;8.57;;;;;;;1.03;56.04;101292.00;4890048;29;20029;-94
2024/01/22 12:10:40;;;;;;;13.48;8.25;;;;;;;1.20;56.19;101304.34;4889287;29;20044;-94
2024/01/22 12:13:08;;;;;;;14.23;9.52;;;;;;;1.38;56.21;101304.25;4908012;29;20056;-94
2024/01/22 12:15:56;;;;;;;14.02;8.70;;;;;;;1.50;54.76;101302.16;4911091;29;20028;-96
2024/01/22 12:18:38;;;;;;;16.75;9.73;;;;;;;1.48;55.24;101302.31;4909874;29;20487;-93
2024/01/22 12:21:47;;;;;;;15.63;9.57;;;;;;;1.55;55.57;101289.22;4896559;29;20040;-95
2024/01/22 12:24:19;;;;;;;15.93;9.38;;;;;;;1.81;55.59;101299.75;4873775;29;20041;-95
2024/01/22 12:27:28;;;;;;;14.85;9.32;;;;;;;1.71;54.53;101275.16;4858726;29;20048;-95
2024/01/22 12:30:26;;;;;;;20.50;10.73;;;;;;;1.71;54.69;101268.00;4844042;29;20037;-94
2024/01/22 12:33:19;;;;;;;16.08;9.52;;;;;;;1.62;54.36;101263.69;4840168;29;20209;-96
2024/01/22 12:38:26;;;;;;;17.50;10.55;;;;;;;1.90;54.32;101264.22;5795504;23;20972;-95
2024/01/22 12:41:00;;;;;;;16.83;9.43;;;;;;;1.95;53.38;101263.72;4916816;29;20035;-95
2024/01/22 12:43:33;;;;;;;13.38;9.00;;;;;;;1.92;53.45;101272.03;4916815;29;20193;-94